sensor_id;sensor_type;location;lat;lon;timestamp;pressure;altitude;pressure_sealevel;temperature;humidity
11808;BME280;5961;42.640;23.380;2023-07-29T00:00:59;93953.22;;;22.14;51.43
11808;BME280;5961;42.640;23.380;2023-07-29T00:03:26;93953.22;;;22.14;51.85
11808;BME280;5961;42.640;23.380;2023-07-29T00:05:56;93957.78;;;22.20;51.94
11808;BME280;5961;42.640;23.380;2023-07-29T00:08:23;93961.59;;;22.26;51.72
11808;BME280;5961;42.640;23.380;2023-07-29T00:10:50;93975.81;;;22.30;51.36
11808;BME280;5961;42.640;23.380;2023-07-29T00:13:16;93961.47;;;22.33;49.93
11808;BME280;5961;42.640;23.380;2023-07-29T00:15:43;93967.25;;;22.35;50.42
11808;BME280;5961;42.640;23.380;2023-07-29T00:18:10;93955.34;;;22.29;50.40
11808;BME280;5961;42.640;23.380;2023-07-29T00:20:37;93961.41;;;22.37;50.22
11808;BME280;5961;42.640;23.380;2023-07-29T00:23:05;93958.00;;;22.33;50.29
11808;BME280;5961;42.640;23.380;2023-07-29T00:25:32;93957.91;;;22.40;50.62
11808;BME280;5961;42.640;23.380;2023-07-29T00:27:58;93945.69;;;22.28;50.09
11808;BME280;5961;42.640;23.380;2023-07-29T00:30:25;93957.94;;;22.36;50.34
11808;BME280;5961;42.640;23.380;2023-07-29T00:32:52;93950.72;;;22.30;50.32
11808;BME280;5961;42.640;23.380;2023-07-29T00:35:18;93948.44;;;22.25;50.52
11808;BME280;5961;42.640;23.380;2023-07-29T00:37:45;93948.13;;;22.19;50.71
11808;BME280;5961;42.640;23.380;2023-07-29T00:40:15;93952.06;;;22.15;50.87
11808;BME280;5961;42.640;23.380;2023-07-29T00:42:42;93954.00;;;22.14;51.00
11808;BME280;5961;42.640;23.380;2023-07-29T00:45:09;93958.34;;;22.08;51.37
11808;BME280;5961;42.640;23.380;2023-07-29T00:47:36;93945.97;;;22.07;52.06
11808;BME280;5961;42.640;23.380;2023-07-29T00:50:04;93941.03;;;22.02;52.15
11808;BME280;5961;42.640;23.380;2023-07-29T00:52:31;93940.16;;;22.09;51.97
11808;BME280;5961;42.640;23.380;2023-07-29T00:54:58;93937.53;;;22.02;52.03
11808;BME280;5961;42.640;23.380;2023-07-29T00:57:26;93937.50;;;22.05;51.85
11808;BME280;5961;42.640;23.380;2023-07-29T00:59:55;93947.25;;;21.99;52.02
11808;BME280;5961;42.640;23.380;2023-07-29T01:02:22;93942.34;;;21.91;52.41
11808;BME280;5961;42.640;23.380;2023-07-29T01:04:52;93941.97;;;21.85;52.81
11808;BME280;5961;42.640;23.380;2023-07-29T01:07:23;93940.06;;;21.82;53.00
11808;BME280;5961;42.640;23.380;2023-07-29T01:10:01;93934.75;;;21.75;53.58
11808;BME280;5961;42.640;23.380;2023-07-29T01:12:36;93935.19;;;21.70;53.55
11808;BME280;5961;42.640;23.380;2023-07-29T01:15:11;93935.56;;;21.72;53.87
11808;BME280;5961;42.640;23.380;2023-07-29T01:17:43;93942.88;;;21.75;54.15
11808;BME280;5961;42.640;23.380;2023-07-29T01:20:14;93943.22;;;21.77;54.31
11808;BME280;5961;42.640;23.380;2023-07-29T01:22:41;93938.91;;;21.83;53.51
11808;BME280;5961;42.640;23.380;2023-07-29T01:25:09;93943.53;;;21.82;52.35
11808;BME280;5961;42.640;23.380;2023-07-29T01:27:36;93937.81;;;21.77;52.38
11808;BME280;5961;42.640;23.380;2023-07-29T01:30:04;93936.44;;;21.62;53.23
11808;BME280;5961;42.640;23.380;2023-07-29T01:32:37;93940.78;;;21.56;53.64
11808;BME280;5961;42.640;23.380;2023-07-29T01:35:17;93932.78;;;21.45;54.35
11808;BME280;5961;42.640;23.380;2023-07-29T01:37:49;93938.59;;;21.44;54.77
11808;BME280;5961;42.640;23.380;2023-07-29T01:40:20;93939.81;;;21.39;55.38
11808;BME280;5961;42.640;23.380;2023-07-29T01:42:48;93927.84;;;21.37;54.65
11808;BME280;5961;42.640;23.380;2023-07-29T01:45:15;93937.81;;;21.43;54.38
11808;BME280;5961;42.640;23.380;2023-07-29T01:47:42;93936.28;;;21.42;54.85
11808;BME280;5961;42.640;23.380;2023-07-29T01:50:09;93937.78;;;21.47;54.79
11808;BME280;5961;42.640;23.380;2023-07-29T01:52:36;93886.69;;;21.22;55.21
11808;BME280;5961;42.640;23.380;2023-07-29T01:55:03;93945.72;;;21.61;54.67
11808;BME280;5961;42.640;23.380;2023-07-29T01:57:32;93941.50;;;21.60;53.62
11808;BME280;5961;42.640;23.380;2023-07-29T01:59:57;93935.31;;;21.59;53.51
11808;BME280;5961;42.640;23.380;2023-07-29T02:02:24;93933.06;;;21.54;53.54
11808;BME280;5961;42.640;23.380;2023-07-29T02:04:51;93940.41;;;21.54;53.81
11808;BME280;5961;42.640;23.380;2023-07-29T02:07:18;93923.63;;;21.36;54.02
11808;BME280;5961;42.640;23.380;2023-07-29T02:09:45;93934.19;;;21.19;54.36
11808;BME280;5961;42.640;23.380;2023-07-29T02:12:12;93936.09;;;20.78;56.07
11808;BME280;5961;42.640;23.380;2023-07-29T02:14:40;93942.03;;;20.59;56.90
11808;BME280;5961;42.640;23.380;2023-07-29T02:17:07;93935.31;;;20.19;58.31
11808;BME280;5961;42.640;23.380;2023-07-29T02:19:34;93943.91;;;20.00;59.43
11808;BME280;5961;42.640;23.380;2023-07-29T02:22:00;93922.13;;;19.59;60.70
11808;BME280;5961;42.640;23.380;2023-07-29T02:24:27;93942.97;;;19.51;62.12
11808;BME280;5961;42.640;23.380;2023-07-29T02:26:54;93945.66;;;19.37;63.26
11808;BME280;5961;42.640;23.380;2023-07-29T02:29:21;93951.50;;;19.14;64.51
11808;BME280;5961;42.640;23.380;2023-07-29T02:31:49;93932.66;;;18.93;65.37
11808;BME280;5961;42.640;23.380;2023-07-29T02:34:15;93901.56;;;18.64;65.77
11808;BME280;5961;42.640;23.380;2023-07-29T02:36:42;93933.06;;;18.81;66.63
11808;BME280;5961;42.640;23.380;2023-07-29T02:39:10;93937.28;;;18.89;66.31
11808;BME280;5961;42.640;23.380;2023-07-29T02:41:37;93939.97;;;18.93;65.82
11808;BME280;5961;42.640;23.380;2023-07-29T02:44:04;93943.06;;;18.84;66.11
11808;BME280;5961;42.640;23.380;2023-07-29T02:46:31;93921.53;;;18.59;66.52
11808;BME280;5961;42.640;23.380;2023-07-29T02:49:01;93935.38;;;18.76;66.44
11808;BME280;5961;42.640;23.380;2023-07-29T02:51:28;93935.75;;;18.78;66.47
11808;BME280;5961;42.640;23.380;2023-07-29T02:53:55;93930.75;;;18.80;66.09
11808;BME280;5961;42.640;23.380;2023-07-29T02:56:22;93928.47;;;18.78;65.91
11808;BME280;5961;42.640;23.380;2023-07-29T02:58:48;93936.13;;;18.83;65.88
11808;BME280;5961;42.640;23.380;2023-07-29T03:01:17;93938.81;;;18.83;65.63
11808;BME280;5961;42.640;23.380;2023-07-29T03:03:44;93940.78;;;18.79;65.78
11808;BME280;5961;42.640;23.380;2023-07-29T03:06:13;93946.53;;;18.88;65.71
11808;BME280;5961;42.640;23.380;2023-07-29T03:08:40;93949.97;;;18.96;65.27
11808;BME280;5961;42.640;23.380;2023-07-29T03:11:07;93951.53;;;19.00;64.93
11808;BME280;5961;42.640;23.380;2023-07-29T03:13:34;93956.88;;;19.11;64.70
11808;BME280;5961;42.640;23.380;2023-07-29T03:16:05;93962.28;;;19.11;64.51
11808;BME280;5961;42.640;23.380;2023-07-29T03:18:32;93961.13;;;19.12;64.28
11808;BME280;5961;42.640;23.380;2023-07-29T03:20:59;93967.66;;;19.18;64.35
11808;BME280;5961;42.640;23.380;2023-07-29T03:23:28;93953.41;;;19.10;64.88
11808;BME280;5961;42.640;23.380;2023-07-29T03:25:55;93963.81;;;18.98;65.80
11808;BME280;5961;42.640;23.380;2023-07-29T03:28:23;93955.75;;;18.87;66.35
11808;BME280;5961;42.640;23.380;2023-07-29T03:30:50;93961.16;;;18.73;67.35
11808;BME280;5961;42.640;23.380;2023-07-29T03:33:17;93953.84;;;18.77;67.40
11808;BME280;5961;42.640;23.380;2023-07-29T03:35:43;93964.22;;;18.61;68.21
11808;BME280;5961;42.640;23.380;2023-07-29T03:38:10;93964.22;;;18.54;68.55
11808;BME280;5961;42.640;23.380;2023-07-29T03:40:39;93963.44;;;18.53;68.81
11808;BME280;5961;42.640;23.380;2023-07-29T03:43:06;93969.63;;;18.61;69.17
11808;BME280;5961;42.640;23.380;2023-07-29T03:45:34;93933.78;;;18.32;69.20
11808;BME280;5961;42.640;23.380;2023-07-29T03:48:01;93970.38;;;18.51;69.40
11808;BME280;5961;42.640;23.380;2023-07-29T03:50:28;93968.81;;;18.53;69.62
11808;BME280;5961;42.640;23.380;2023-07-29T03:52:55;93962.28;;;18.51;70.10
11808;BME280;5961;42.640;23.380;2023-07-29T03:55:22;93962.25;;;18.44;70.60
11808;BME280;5961;42.640;23.380;2023-07-29T03:57:50;93963.41;;;18.43;70.83
11808;BME280;5961;42.640;23.380;2023-07-29T04:00:17;93958.03;;;18.43;71.02
11808;BME280;5961;42.640;23.380;2023-07-29T04:02:44;93965.38;;;18.53;71.25
11808;BME280;5961;42.640;23.380;2023-07-29T04:05:11;93961.91;;;18.56;71.08
11808;BME280;5961;42.640;23.380;2023-07-29T04:07:37;93963.84;;;18.62;70.77
11808;BME280;5961;42.640;23.380;2023-07-29T04:10:06;93964.22;;;18.68;70.64
11808;BME280;5961;42.640;23.380;2023-07-29T04:12:33;93966.91;;;18.75;70.20
11808;BME280;5961;42.640;23.380;2023-07-29T04:15:01;93971.53;;;18.85;69.93
11808;BME280;5961;42.640;23.380;2023-07-29T04:17:28;93965.38;;;18.88;69.88
11808;BME280;5961;42.640;23.380;2023-07-29T04:19:54;93971.53;;;18.92;69.88
11808;BME280;5961;42.640;23.380;2023-07-29T04:22:21;93946.94;;;18.73;69.95
11808;BME280;5961;42.640;23.380;2023-07-29T04:24:48;93966.13;;;18.92;70.18
11808;BME280;5961;42.640;23.380;2023-07-29T04:27:15;93953.06;;;18.80;69.64
11808;BME280;5961;42.640;23.380;2023-07-29T04:29:41;93958.84;;;18.96;69.62
11808;BME280;5961;42.640;23.380;2023-07-29T04:32:09;93966.13;;;19.06;69.51
11808;BME280;5961;42.640;23.380;2023-07-29T04:34:36;93974.19;;;19.17;69.59
11808;BME280;5961;42.640;23.380;2023-07-29T04:37:03;93971.09;;;19.22;69.30
11808;BME280;5961;42.640;23.380;2023-07-29T04:39:30;93978.03;;;19.27;69.44
11808;BME280;5961;42.640;23.380;2023-07-29T04:41:57;93977.63;;;19.32;69.11
11808;BME280;5961;42.640;23.380;2023-07-29T04:44:23;93979.19;;;19.36;68.85
11808;BME280;5961;42.640;23.380;2023-07-29T04:46:50;93975.34;;;19.34;68.83
11808;BME280;5961;42.640;23.380;2023-07-29T04:49:18;93981.47;;;19.48;68.68
11808;BME280;5961;42.640;23.380;2023-07-29T04:51:45;93976.81;;;19.56;68.53
11808;BME280;5961;42.640;23.380;2023-07-29T04:54:11;93980.28;;;19.67;68.39
11808;BME280;5961;42.640;23.380;2023-07-29T04:56:38;93983.34;;;19.76;68.20
11808;BME280;5961;42.640;23.380;2023-07-29T04:59:05;93987.53;;;19.84;67.80
11808;BME280;5961;42.640;23.380;2023-07-29T05:01:33;93983.63;;;19.92;67.44
11808;BME280;5961;42.640;23.380;2023-07-29T05:04:00;93992.84;;;20.05;67.29
11808;BME280;5961;42.640;23.380;2023-07-29T05:06:28;93988.91;;;20.17;66.66
11808;BME280;5961;42.640;23.380;2023-07-29T05:08:57;93996.59;;;20.33;66.24
11808;BME280;5961;42.640;23.380;2023-07-29T05:11:24;93991.91;;;20.40;65.79
11808;BME280;5961;42.640;23.380;2023-07-29T05:13:51;93999.13;;;20.57;65.05
11808;BME280;5961;42.640;23.380;2023-07-29T05:16:17;94000.59;;;20.69;64.74
11808;BME280;5961;42.640;23.380;2023-07-29T05:18:44;94002.44;;;20.79;64.40
11808;BME280;5961;42.640;23.380;2023-07-29T05:21:11;94000.44;;;20.90;63.46
11808;BME280;5961;42.640;23.380;2023-07-29T05:23:41;93994.59;;;20.95;63.47
11808;BME280;5961;42.640;23.380;2023-07-29T05:26:07;93997.63;;;21.04;63.23
11808;BME280;5961;42.640;23.380;2023-07-29T05:28:34;93996.06;;;21.03;63.45
11808;BME280;5961;42.640;23.380;2023-07-29T05:31:01;94009.53;;;21.14;63.06
11808;BME280;5961;42.640;23.380;2023-07-29T05:33:28;94013.72;;;21.18;62.95
11808;BME280;5961;42.640;23.380;2023-07-29T05:35:54;94014.47;;;21.22;63.08
11808;BME280;5961;42.640;23.380;2023-07-29T05:38:21;94014.03;;;21.27;62.90
11808;BME280;5961;42.640;23.380;2023-07-29T05:40:49;94000.59;;;21.20;63.22
11808;BME280;5961;42.640;23.380;2023-07-29T05:43:16;94021.34;;;21.30;63.26
11808;BME280;5961;42.640;23.380;2023-07-29T05:45:43;93994.47;;;21.16;63.20
11808;BME280;5961;42.640;23.380;2023-07-29T05:48:09;94021.66;;;21.40;62.91
11808;BME280;5961;42.640;23.380;2023-07-29T05:50:36;94027.81;;;21.44;62.69
11808;BME280;5961;42.640;23.380;2023-07-29T05:53:03;94020.44;;;21.48;62.81
11808;BME280;5961;42.640;23.380;2023-07-29T05:55:29;94022.66;;;21.56;62.53
11808;BME280;5961;42.640;23.380;2023-07-29T05:57:57;94019.50;;;21.65;61.89
11808;BME280;5961;42.640;23.380;2023-07-29T06:00:24;93955.78;;;21.23;61.37
11808;BME280;5961;42.640;23.380;2023-07-29T06:02:51;94016.69;;;21.75;61.59
11808;BME280;5961;42.640;23.380;2023-07-29T06:05:18;94023.13;;;21.85;61.67
11808;BME280;5961;42.640;23.380;2023-07-29T06:07:44;94019.25;;;21.86;61.73
11808;BME280;5961;42.640;23.380;2023-07-29T06:10:13;94020.72;;;21.94;61.24
11808;BME280;5961;42.640;23.380;2023-07-29T06:12:43;94020.22;;;22.06;60.71
11808;BME280;5961;42.640;23.380;2023-07-29T06:15:11;94015.06;;;22.15;60.63
11808;BME280;5961;42.640;23.380;2023-07-29T06:17:39;94025.06;;;22.22;59.33
11808;BME280;5961;42.640;23.380;2023-07-29T06:20:07;94016.06;;;22.28;58.71
11808;BME280;5961;42.640;23.380;2023-07-29T06:22:33;94018.75;;;22.32;58.42
11808;BME280;5961;42.640;23.380;2023-07-29T06:25:00;94013.59;;;22.41;58.25
11808;BME280;5961;42.640;23.380;2023-07-29T06:27:27;93974.03;;;22.20;57.87
11808;BME280;5961;42.640;23.380;2023-07-29T06:29:53;94012.28;;;22.53;58.15
11808;BME280;5961;42.640;23.380;2023-07-29T06:32:21;94009.09;;;22.58;58.19
11808;BME280;5961;42.640;23.380;2023-07-29T06:34:48;94016.78;;;22.66;58.38
11808;BME280;5961;42.640;23.380;2023-07-29T06:37:17;94008.16;;;22.71;57.82
11808;BME280;5961;42.640;23.380;2023-07-29T06:39:43;93999.53;;;22.80;58.08
11808;BME280;5961;42.640;23.380;2023-07-29T06:42:10;93991.03;;;22.78;57.16
11808;BME280;5961;42.640;23.380;2023-07-29T06:44:37;93974.06;;;22.74;56.75
11808;BME280;5961;42.640;23.380;2023-07-29T06:47:04;93997.31;;;22.98;56.25
11808;BME280;5961;42.640;23.380;2023-07-29T06:49:32;94002.97;;;23.07;56.30
11808;BME280;5961;42.640;23.380;2023-07-29T06:51:59;94001.31;;;23.13;55.97
11808;BME280;5961;42.640;23.380;2023-07-29T06:54:26;93988.06;;;23.19;55.73
11808;BME280;5961;42.640;23.380;2023-07-29T06:56:52;93991.88;;;23.21;55.56
11808;BME280;5961;42.640;23.380;2023-07-29T06:59:19;93987.91;;;23.29;55.52
11808;BME280;5961;42.640;23.380;2023-07-29T07:01:47;93993.16;;;23.40;55.86
11808;BME280;5961;42.640;23.380;2023-07-29T07:04:14;93990.06;;;23.38;56.27
11808;BME280;5961;42.640;23.380;2023-07-29T07:06:42;93996.88;;;23.49;55.62
11808;BME280;5961;42.640;23.380;2023-07-29T07:09:08;93990.25;;;23.51;56.02
11808;BME280;5961;42.640;23.380;2023-07-29T07:11:35;94002.09;;;23.60;55.73
11808;BME280;5961;42.640;23.380;2023-07-29T07:14:02;93998.91;;;23.65;55.48
11808;BME280;5961;42.640;23.380;2023-07-29T07:16:28;94002.69;;;23.71;56.10
11808;BME280;5961;42.640;23.380;2023-07-29T07:18:56;93996.34;;;23.78;54.88
11808;BME280;5961;42.640;23.380;2023-07-29T07:21:22;94005.53;;;23.84;54.06
11808;BME280;5961;42.640;23.380;2023-07-29T07:23:50;94002.72;;;23.87;53.87
11808;BME280;5961;42.640;23.380;2023-07-29T07:26:17;93996.06;;;23.92;53.68
11808;BME280;5961;42.640;23.380;2023-07-29T07:28:44;94008.03;;;23.94;53.33
11808;BME280;5961;42.640;23.380;2023-07-29T07:31:10;93987.31;;;24.04;52.57
11808;BME280;5961;42.640;23.380;2023-07-29T07:33:37;93991.84;;;24.11;51.98
11808;BME280;5961;42.640;23.380;2023-07-29T07:36:04;93998.06;;;24.11;51.78
11808;BME280;5961;42.640;23.380;2023-07-29T07:38:31;94000.28;;;24.16;51.58
11808;BME280;5961;42.640;23.380;2023-07-29T07:40:59;93975.16;;;24.09;51.35
11808;BME280;5961;42.640;23.380;2023-07-29T07:43:25;93988.78;;;24.28;50.48
11808;BME280;5961;42.640;23.380;2023-07-29T07:45:58;93987.16;;;24.31;51.12
11808;BME280;5961;42.640;23.380;2023-07-29T07:48:28;93986.38;;;24.30;51.65
11808;BME280;5961;42.640;23.380;2023-07-29T07:50:54;93992.47;;;24.38;52.74
11808;BME280;5961;42.640;23.380;2023-07-29T07:53:21;93995.84;;;24.42;52.87
11808;BME280;5961;42.640;23.380;2023-07-29T07:55:48;93983.38;;;24.44;52.57
11808;BME280;5961;42.640;23.380;2023-07-29T07:58:16;93989.50;;;24.48;51.98
11808;BME280;5961;42.640;23.380;2023-07-29T08:00:43;93996.41;;;24.53;52.46
11808;BME280;5961;42.640;23.380;2023-07-29T08:03:20;93984.75;;;24.52;52.20
11808;BME280;5961;42.640;23.380;2023-07-29T08:05:47;93996.66;;;24.58;51.20
11808;BME280;5961;42.640;23.380;2023-07-29T08:08:15;93999.22;;;24.66;50.69
11808;BME280;5961;42.640;23.380;2023-07-29T08:10:42;93987.50;;;24.69;51.19
11808;BME280;5961;42.640;23.380;2023-07-29T08:13:08;93990.06;;;24.76;51.63
11808;BME280;5961;42.640;23.380;2023-07-29T08:15:37;93995.41;;;24.79;50.78
11808;BME280;5961;42.640;23.380;2023-07-29T08:18:04;93997.25;;;24.86;50.68
11808;BME280;5961;42.640;23.380;2023-07-29T08:20:30;93997.50;;;24.91;51.26
11808;BME280;5961;42.640;23.380;2023-07-29T08:22:58;94002.53;;;24.93;50.13
11808;BME280;5961;42.640;23.380;2023-07-29T08:25:24;94003.53;;;24.99;49.10
11808;BME280;5961;42.640;23.380;2023-07-29T08:27:51;93999.63;;;25.00;49.06
11808;BME280;5961;42.640;23.380;2023-07-29T08:30:18;93986.78;;;25.00;48.65
11808;BME280;5961;42.640;23.380;2023-07-29T08:32:46;93992.47;;;25.06;48.29
11808;BME280;5961;42.640;23.380;2023-07-29T08:35:13;93993.41;;;25.16;47.83
11808;BME280;5961;42.640;23.380;2023-07-29T08:37:40;93992.56;;;25.19;47.67
11808;BME280;5961;42.640;23.380;2023-07-29T08:40:07;93994.34;;;25.25;47.16
11808;BME280;5961;42.640;23.380;2023-07-29T08:42:35;93990.00;;;25.28;46.40
11808;BME280;5961;42.640;23.380;2023-07-29T08:45:07;93988.31;;;25.34;46.63
11808;BME280;5961;42.640;23.380;2023-07-29T08:47:34;93989.75;;;25.38;46.97
11808;BME280;5961;42.640;23.380;2023-07-29T08:50:03;93984.97;;;25.42;46.34
11808;BME280;5961;42.640;23.380;2023-07-29T08:52:31;93984.06;;;25.49;45.86
11808;BME280;5961;42.640;23.380;2023-07-29T08:55:00;93950.47;;;25.39;47.81
11808;BME280;5961;42.640;23.380;2023-07-29T08:57:27;93974.63;;;25.53;45.73
11808;BME280;5961;42.640;23.380;2023-07-29T08:59:55;93967.47;;;25.59;45.58
11808;BME280;5961;42.640;23.380;2023-07-29T09:02:23;93979.69;;;25.68;45.74
11808;BME280;5961;42.640;23.380;2023-07-29T09:04:49;93980.69;;;25.74;44.20
11808;BME280;5961;42.640;23.380;2023-07-29T09:07:18;93970.50;;;25.78;43.08
11808;BME280;5961;42.640;23.380;2023-07-29T09:09:45;93977.59;;;25.88;44.80
11808;BME280;5961;42.640;23.380;2023-07-29T09:12:12;93976.31;;;25.92;39.82
11808;BME280;5961;42.640;23.380;2023-07-29T09:14:39;93974.59;;;25.98;43.10
11808;BME280;5961;42.640;23.380;2023-07-29T09:17:07;93964.78;;;26.01;43.45
11808;BME280;5961;42.640;23.380;2023-07-29T09:19:34;93963.91;;;26.04;40.78
11808;BME280;5961;42.640;23.380;2023-07-29T09:22:00;93960.56;;;26.12;41.92
11808;BME280;5961;42.640;23.380;2023-07-29T09:24:29;93965.94;;;26.16;40.96
11808;BME280;5961;42.640;23.380;2023-07-29T09:26:57;93959.19;;;26.21;41.11
11808;BME280;5961;42.640;23.380;2023-07-29T09:29:28;93921.09;;;26.04;40.37
11808;BME280;5961;42.640;23.380;2023-07-29T09:32:17;93945.47;;;26.24;38.84
11808;BME280;5961;42.640;23.380;2023-07-29T09:34:44;93946.66;;;26.36;40.56
11808;BME280;5961;42.640;23.380;2023-07-29T09:37:15;93953.88;;;26.42;41.21
11808;BME280;5961;42.640;23.380;2023-07-29T09:39:45;93955.72;;;26.45;37.76
11808;BME280;5961;42.640;23.380;2023-07-29T09:42:17;93957.59;;;26.48;37.49
11808;BME280;5961;42.640;23.380;2023-07-29T09:44:44;93954.31;;;26.53;36.54
11808;BME280;5961;42.640;23.380;2023-07-29T09:47:19;93956.16;;;26.56;36.03
11808;BME280;5961;42.640;23.380;2023-07-29T09:49:46;93933.06;;;26.48;34.91
11808;BME280;5961;42.640;23.380;2023-07-29T09:52:14;93942.00;;;26.61;34.53
11808;BME280;5961;42.640;23.380;2023-07-29T09:54:42;93934.03;;;26.67;34.78
11808;BME280;5961;42.640;23.380;2023-07-29T09:57:10;93938.63;;;26.70;34.65
11808;BME280;5961;42.640;23.380;2023-07-29T09:59:37;93945.47;;;26.74;34.64
11808;BME280;5961;42.640;23.380;2023-07-29T10:02:04;93934.56;;;26.74;34.91
11808;BME280;5961;42.640;23.380;2023-07-29T10:04:32;93936.78;;;26.80;34.08
11808;BME280;5961;42.640;23.380;2023-07-29T10:07:00;93937.00;;;26.85;35.72
11808;BME280;5961;42.640;23.380;2023-07-29T10:09:28;93946.59;;;26.90;35.21
11808;BME280;5961;42.640;23.380;2023-07-29T10:11:55;93941.78;;;26.94;33.55
11808;BME280;5961;42.640;23.380;2023-07-29T10:14:27;93929.34;;;26.93;34.06
11808;BME280;5961;42.640;23.380;2023-07-29T10:16:54;93930.22;;;27.02;34.14
11808;BME280;5961;42.640;23.380;2023-07-29T10:19:22;93928.91;;;27.07;34.18
11808;BME280;5961;42.640;23.380;2023-07-29T10:21:51;93922.47;;;27.13;33.74
11808;BME280;5961;42.640;23.380;2023-07-29T10:24:19;93917.50;;;27.21;33.19
11808;BME280;5961;42.640;23.380;2023-07-29T10:26:57;93911.06;;;27.27;32.46
11808;BME280;5961;42.640;23.380;2023-07-29T10:29:29;93906.38;;;27.28;33.31
11808;BME280;5961;42.640;23.380;2023-07-29T10:31:57;93856.44;;;27.06;33.04
11808;BME280;5961;42.640;23.380;2023-07-29T10:34:25;93894.88;;;27.46;33.37
11808;BME280;5961;42.640;23.380;2023-07-29T10:36:52;93890.38;;;27.52;32.83
11808;BME280;5961;42.640;23.380;2023-07-29T10:39:19;93900.59;;;27.60;32.28
11808;BME280;5961;42.640;23.380;2023-07-29T10:41:56;93861.66;;;27.47;33.06
11808;BME280;5961;42.640;23.380;2023-07-29T10:44:50;93894.94;;;27.76;32.09
11808;BME280;5961;42.640;23.380;2023-07-29T10:47:19;93892.84;;;27.80;32.38
11808;BME280;5961;42.640;23.380;2023-07-29T10:49:49;93888.66;;;27.89;32.27
11808;BME280;5961;42.640;23.380;2023-07-29T10:52:17;93875.63;;;27.93;32.53
11808;BME280;5961;42.640;23.380;2023-07-29T10:54:53;93861.34;;;27.89;32.45
11808;BME280;5961;42.640;23.380;2023-07-29T10:57:31;93874.66;;;28.08;32.14
11808;BME280;5961;42.640;23.380;2023-07-29T11:00:00;93873.66;;;28.15;31.91
11808;BME280;5961;42.640;23.380;2023-07-29T11:02:29;93878.97;;;28.18;31.38
11808;BME280;5961;42.640;23.380;2023-07-29T11:04:56;93878.56;;;28.29;31.33
11808;BME280;5961;42.640;23.380;2023-07-29T11:07:25;93871.16;;;28.39;31.54
11808;BME280;5961;42.640;23.380;2023-07-29T11:10:00;93853.25;;;28.38;31.15
11808;BME280;5961;42.640;23.380;2023-07-29T11:12:41;93864.44;;;28.61;31.13
11808;BME280;5961;42.640;23.380;2023-07-29T11:15:18;93858.41;;;28.75;31.11
11808;BME280;5961;42.640;23.380;2023-07-29T11:17:46;93860.56;;;28.90;30.98
11808;BME280;5961;42.640;23.380;2023-07-29T11:20:14;93866.97;;;29.05;29.42
11808;BME280;5961;42.640;23.380;2023-07-29T11:22:41;93860.91;;;29.19;29.83
11808;BME280;5961;42.640;23.380;2023-07-29T11:25:10;93856.41;;;29.25;29.62
11808;BME280;5961;42.640;23.380;2023-07-29T11:27:37;93815.13;;;29.10;28.32
11808;BME280;5961;42.640;23.380;2023-07-29T11:30:06;93839.97;;;29.34;29.24
11808;BME280;5961;42.640;23.380;2023-07-29T11:32:35;93870.66;;;29.56;26.72
11808;BME280;5961;42.640;23.380;2023-07-29T11:35:03;93857.44;;;29.64;27.74
11808;BME280;5961;42.640;23.380;2023-07-29T11:37:30;93819.56;;;29.44;27.86
11808;BME280;5961;42.640;23.380;2023-07-29T11:39:57;93859.09;;;29.79;27.78
11808;BME280;5961;42.640;23.380;2023-07-29T11:42:26;93854.69;;;29.91;27.91
11808;BME280;5961;42.640;23.380;2023-07-29T11:44:53;93855.28;;;29.95;28.63
11808;BME280;5961;42.640;23.380;2023-07-29T11:47:19;93851.78;;;30.04;27.37
11808;BME280;5961;42.640;23.380;2023-07-29T11:49:48;93859.97;;;30.13;27.16
11808;BME280;5961;42.640;23.380;2023-07-29T11:52:14;93838.94;;;30.19;26.62
11808;BME280;5961;42.640;23.380;2023-07-29T11:54:45;93842.69;;;30.30;27.16
11808;BME280;5961;42.640;23.380;2023-07-29T11:57:12;93803.31;;;30.19;25.81
11808;BME280;5961;42.640;23.380;2023-07-29T11:59:39;93831.06;;;30.44;25.79
11808;BME280;5961;42.640;23.380;2023-07-29T12:02:11;93839.88;;;30.58;25.96
11808;BME280;5961;42.640;23.380;2023-07-29T12:04:39;93843.59;;;30.69;26.00
11808;BME280;5961;42.640;23.380;2023-07-29T12:07:07;93834.09;;;30.79;26.86
11808;BME280;5961;42.640;23.380;2023-07-29T12:09:35;93826.09;;;30.90;26.17
11808;BME280;5961;42.640;23.380;2023-07-29T12:12:02;93816.81;;;30.97;26.46
11808;BME280;5961;42.640;23.380;2023-07-29T12:14:29;93816.53;;;31.10;26.23
11808;BME280;5961;42.640;23.380;2023-07-29T12:16:56;93822.81;;;31.25;25.36
11808;BME280;5961;42.640;23.380;2023-07-29T12:19:31;93825.50;;;31.34;25.16
11808;BME280;5961;42.640;23.380;2023-07-29T12:21:58;93817.84;;;31.38;25.66
11808;BME280;5961;42.640;23.380;2023-07-29T12:24:26;93820.50;;;31.47;25.53
11808;BME280;5961;42.640;23.380;2023-07-29T12:26:53;93794.56;;;31.48;25.09
11808;BME280;5961;42.640;23.380;2023-07-29T12:29:20;93814.13;;;31.65;25.61
11808;BME280;5961;42.640;23.380;2023-07-29T12:31:47;93806.56;;;31.74;25.07
11808;BME280;5961;42.640;23.380;2023-07-29T12:34:18;93776.22;;;31.69;25.64
11808;BME280;5961;42.640;23.380;2023-07-29T12:36:47;93821.56;;;32.02;24.67
11808;BME280;5961;42.640;23.380;2023-07-29T12:39:18;93807.22;;;32.13;24.36
11808;BME280;5961;42.640;23.380;2023-07-29T12:41:46;93811.38;;;32.23;23.84
11808;BME280;5961;42.640;23.380;2023-07-29T12:44:13;93797.38;;;32.21;23.65
11808;BME280;5961;42.640;23.380;2023-07-29T12:46:40;93809.28;;;32.33;24.02
11808;BME280;5961;42.640;23.380;2023-07-29T12:49:07;93807.28;;;32.48;24.59
11808;BME280;5961;42.640;23.380;2023-07-29T12:51:34;93808.41;;;32.56;23.75
11808;BME280;5961;42.640;23.380;2023-07-29T12:54:01;93805.47;;;32.59;24.02
11808;BME280;5961;42.640;23.380;2023-07-29T12:56:29;93803.63;;;32.71;23.75
11808;BME280;5961;42.640;23.380;2023-07-29T12:58:58;93804.53;;;32.83;23.00
11808;BME280;5961;42.640;23.380;2023-07-29T13:01:25;93799.91;;;32.94;23.36
11808;BME280;5961;42.640;23.380;2023-07-29T13:03:51;93802.31;;;33.07;23.22